Time;durP1;ratioP1;P1;durP2;ratioP2;P2;SDS_P1;SDS_P2;PMS_P1;PMS_P2;Temp;Humidity;BMP_temperature;BMP_pressure;BME280_temperature;BME280_humidity;BME280_pressure;Samples;Min_cycle;Max_cycle;Signal;HPM_P1;HPM_P2
2022/10/14 00:01:01;;;;;;;12.77;10.17;;;14.10;99.90;;;;;;5066300;28;20459;-86
2022/10/14 00:03:28;;;;;;;14.10;10.67;;;14.10;99.90;;;;;;5069215;28;20524;-85
2022/10/14 00:05:55;;;;;;;13.90;12.33;;;14.10;99.90;;;;;;5055423;28;20467;-85
2022/10/14 00:08:24;;;;;;;14.00;11.20;;;14.10;99.90;;;;;;5046007;28;20461;-85
2022/10/14 00:10:51;;;;;;;19.20;14.73;;;14.10;99.90;;;;;;5049292;28;20850;-85
2022/10/14 00:13:18;;;;;;;14.93;12.13;;;14.00;99.90;;;;;;5053919;28;20514;-86
2022/10/14 00:15:45;;;;;;;19.97;13.67;;;14.10;99.90;;;;;;5056597;28;20487;-85
2022/10/14 00:18:12;;;;;;;15.60;12.30;;;14.10;99.90;;;;;;5056454;28;20549;-85
2022/10/14 00:20:38;;;;;;;13.63;12.23;;;14.10;99.90;;;;;;5046355;28;20458;-84
2022/10/14 00:23:05;;;;;;;14.70;12.40;;;14.10;99.90;;;;;;5044444;28;20459;-84
2022/10/14 00:25:37;;;;;;;19.77;11.70;;;14.10;99.90;;;;;;5045515;28;20512;-85
2022/10/14 00:28:05;;;;;;;16.43;11.93;;;14.10;99.90;;;;;;5032773;28;20451;-86
2022/10/14 00:30:32;;;;;;;16.60;12.97;;;14.20;99.90;;;;;;5039051;28;20457;-84
2022/10/14 00:32:59;;;;;;;15.20;11.40;;;14.20;99.90;;;;;;5034805;28;20450;-85
2022/10/14 00:35:26;;;;;;;14.97;11.33;;;14.20;99.90;;;;;;5033887;28;20514;-85
2022/10/14 00:37:52;;;;;;;14.47;10.87;;;14.10;99.90;;;;;;5033969;28;20541;-85
2022/10/14 00:40:19;;;;;;;14.87;12.50;;;14.20;99.90;;;;;;5034211;28;20457;-85
2022/10/14 00:42:50;;;;;;;14.70;11.00;;;14.10;99.90;;;;;;5032713;28;20540;-85
2022/10/14 00:45:21;;;;;;;18.93;10.90;;;14.10;99.90;;;;;;5031113;28;20473;-84
2022/10/14 00:47:49;;;;;;;12.10;10.03;;;14.20;99.90;;;;;;5029572;28;20453;-84
2022/10/14 00:50:17;;;;;;;13.07;10.50;;;14.20;99.90;;;;;;5044449;28;20458;-85
2022/10/14 00:52:45;;;;;;;14.20;10.30;;;14.20;99.90;;;;;;5032132;28;20450;-85
2022/10/14 00:55:15;;;;;;;15.37;11.63;;;14.20;99.90;;;;;;5023557;28;20506;-86
2022/10/14 00:57:42;;;;;;;13.30;10.40;;;14.20;99.90;;;;;;5035660;28;20464;-85
2022/10/14 01:00:14;;;;;;;11.87;10.33;;;14.20;99.90;;;;;;5034873;28;20461;-85
2022/10/14 01:02:41;;;;;;;10.60;9.33;;;14.20;99.90;;;;;;5031642;28;20585;-85
2022/10/14 01:05:13;;;;;;;13.13;10.70;;;14.30;99.90;;;;;;5036076;28;21024;-85
2022/10/14 01:07:58;;;;;;;12.03;10.00;;;14.30;99.90;;;;;;5036506;28;20453;-85
2022/10/14 01:10:32;;;;;;;11.33;9.40;;;14.30;99.90;;;;;;5042291;28;20451;-85
2022/10/14 01:13:08;;;;;;;14.60;11.20;;;14.30;99.90;;;;;;5033482;28;20466;-85
2022/10/14 01:15:41;;;;;;;13.20;9.80;;;14.30;99.90;;;;;;5026570;28;20481;-86
2022/10/14 01:18:21;;;;;;;17.67;9.83;;;14.30;99.90;;;;;;5029957;28;20465;-85
2022/10/14 01:20:57;;;;;;;14.97;10.10;;;14.30;99.90;;;;;;5028448;28;20461;-85
2022/10/14 01:23:45;;;;;;;14.67;12.10;;;14.30;99.90;;;;;;5042745;28;21042;-86
2022/10/14 01:26:30;;;;;;;12.50;11.17;;;14.20;99.90;;;;;;5028553;28;20445;-85
2022/10/14 01:29:13;;;;;;;13.53;11.57;;;14.20;99.90;;;;;;5049569;28;20448;-85
2022/10/14 01:31:47;;;;;;;19.37;12.03;;;14.30;99.90;;;;;;5046047;28;20430;-85
2022/10/14 01:34:21;;;;;;;13.90;11.13;;;14.20;99.90;;;;;;5039173;28;20473;-85
2022/10/14 01:36:54;;;;;;;16.30;12.67;;;14.30;99.90;;;;;;5038988;28;20501;-85
2022/10/14 01:39:25;;;;;;;17.23;13.07;;;14.30;99.90;;;;;;5042242;28;20457;-86
2022/10/14 01:41:56;;;;;;;17.63;11.70;;;14.20;99.90;;;;;;5031570;28;20473;-86
2022/10/14 01:44:26;;;;;;;13.90;11.17;;;14.20;99.90;;;;;;5030528;28;20476;-86
2022/10/14 01:46:55;;;;;;;15.10;12.47;;;14.20;99.90;;;;;;5040589;28;20514;-85
2022/10/14 01:49:29;;;;;;;15.13;11.30;;;14.20;99.90;;;;;;5042325;28;20448;-85
2022/10/14 01:52:01;;;;;;;12.27;10.70;;;14.30;99.90;;;;;;5035379;28;20464;-85
2022/10/14 01:54:32;;;;;;;13.63;11.70;;;14.30;99.90;;;;;;5038507;28;20479;-85
2022/10/14 01:57:03;;;;;;;13.70;10.83;;;14.20;99.90;;;;;;5031938;28;20491;-84
2022/10/14 01:59:31;;;;;;;15.80;11.10;;;14.30;99.90;;;;;;5023144;28;20468;-85
2022/10/14 02:01:59;;;;;;;13.73;11.47;;;14.30;99.90;;;;;;5024193;28;20545;-85
2022/10/14 02:04:26;;;;;;;12.57;11.20;;;14.30;99.90;;;;;;5026190;28;20480;-86
2022/10/14 02:07:00;;;;;;;13.17;10.63;;;14.30;99.90;;;;;;5034292;28;20509;-84
2022/10/14 02:09:35;;;;;;;11.50;10.30;;;14.30;99.90;;;;;;5038876;28;20460;-84
2022/10/14 02:12:11;;;;;;;14.20;12.00;;;14.30;99.90;;;;;;5041810;28;20494;-84
2022/10/14 02:14:43;;;;;;;15.20;12.73;;;14.30;99.90;;;;;;5024422;28;21044;-85
2022/10/14 02:17:17;;;;;;;14.87;12.03;;;14.30;99.90;;;;;;5023577;28;20485;-85
2022/10/14 02:19:48;;;;;;;15.00;12.70;;;14.30;99.90;;;;;;5024660;28;20453;-85
2022/10/14 02:22:21;;;;;;;12.93;11.27;;;14.30;99.90;;;;;;5023423;28;20859;-86
2022/10/14 02:24:52;;;;;;;12.70;11.30;;;14.30;99.90;;;;;;5030629;28;20556;-85
2022/10/14 02:27:22;;;;;;;15.13;13.30;;;14.30;99.90;;;;;;5042501;28;20455;-85
2022/10/14 02:29:51;;;;;;;13.33;11.93;;;14.30;99.90;;;;;;5042974;28;20844;-85
2022/10/14 02:32:21;;;;;;;12.97;11.63;;;14.30;99.90;;;;;;5041517;28;20457;-85
2022/10/14 02:34:51;;;;;;;19.03;14.13;;;14.30;99.90;;;;;;5023158;28;20487;-85
2022/10/14 02:37:21;;;;;;;14.87;12.20;;;14.30;99.90;;;;;;5025029;28;20496;-86
2022/10/14 02:39:54;;;;;;;14.27;12.00;;;14.30;99.90;;;;;;5037672;28;20453;-85
2022/10/14 02:42:20;;;;;;;13.50;12.10;;;14.30;99.90;;;;;;5042166;28;20455;-85
2022/10/14 02:44:54;;;;;;;12.03;10.33;;;14.30;99.90;;;;;;5042512;28;20925;-85
2022/10/14 02:47:23;;;;;;;14.27;12.00;;;14.30;99.90;;;;;;5038002;28;20450;-85
2022/10/14 02:49:51;;;;;;;13.27;11.87;;;14.30;99.90;;;;;;5022392;28;20468;-85
2022/10/14 02:52:18;;;;;;;13.50;11.50;;;14.30;99.90;;;;;;5030443;28;20458;-85
2022/10/14 02:54:45;;;;;;;12.67;11.40;;;14.20;99.90;;;;;;5022566;28;20487;-85
2022/10/14 02:57:12;;;;;;;11.40;10.20;;;14.30;99.90;;;;;;5022516;28;20578;-85
2022/10/14 02:59:39;;;;;;;10.83;9.80;;;14.30;99.90;;;;;;5022954;28;20539;-85
2022/10/14 03:02:07;;;;;;;12.00;10.53;;;14.30;99.90;;;;;;5024600;28;20454;-85
2022/10/14 03:04:35;;;;;;;13.60;11.73;;;14.30;99.90;;;;;;5023509;28;20478;-85
2022/10/14 03:07:02;;;;;;;13.87;10.73;;;14.30;99.90;;;;;;5029009;28;20458;-85
2022/10/14 03:09:30;;;;;;;12.43;11.13;;;14.30;99.90;;;;;;5060307;28;20528;-85
2022/10/14 03:11:56;;;;;;;12.30;11.10;;;14.30;99.90;;;;;;5056180;28;20859;-85
2022/10/14 03:14:23;;;;;;;11.43;10.23;;;14.30;99.90;;;;;;5043010;28;20473;-84
2022/10/14 03:16:50;;;;;;;10.47;9.43;;;14.30;99.90;;;;;;5039473;28;20582;-84
2022/10/14 03:19:17;;;;;;;10.77;9.33;;;14.30;99.90;;;;;;5022454;28;20526;-85
2022/10/14 03:21:45;;;;;;;11.27;9.30;;;14.30;99.90;;;;;;5032727;28;20522;-84
2022/10/14 03:24:12;;;;;;;10.40;9.30;;;14.30;99.90;;;;;;5025435;28;20489;-85
2022/10/14 03:26:39;;;;;;;10.57;8.80;;;14.30;99.90;;;;;;5020836;28;20455;-85
2022/10/14 03:29:05;;;;;;;11.47;10.27;;;14.30;99.90;;;;;;5018870;28;20454;-85
2022/10/14 03:31:32;;;;;;;11.10;8.83;;;14.30;99.90;;;;;;5031523;28;20914;-84
2022/10/14 03:33:59;;;;;;;11.27;9.70;;;14.30;99.90;;;;;;5042210;28;20554;-84
2022/10/14 03:36:26;;;;;;;9.33;8.40;;;14.30;99.90;;;;;;5033947;28;20482;-85
2022/10/14 03:38:54;;;;;;;14.03;10.50;;;14.30;99.90;;;;;;5021584;28;20454;-86
2022/10/14 03:41:21;;;;;;;10.40;9.30;;;14.30;99.90;;;;;;5037515;28;20453;-86
2022/10/14 03:43:48;;;;;;;10.60;9.50;;;14.30;99.90;;;;;;5041453;28;20473;-85
2022/10/14 03:46:14;;;;;;;10.73;9.27;;;14.30;99.90;;;;;;5043481;28;20451;-85
2022/10/14 03:48:41;;;;;;;10.33;9.20;;;14.30;99.90;;;;;;5025411;28;20447;-84
2022/10/14 03:51:08;;;;;;;11.77;10.33;;;14.30;99.90;;;;;;5048808;28;20695;-85
2022/10/14 03:53:35;;;;;;;12.43;11.13;;;14.30;99.90;;;;;;5050612;28;20478;-85
2022/10/14 03:56:04;;;;;;;11.53;9.67;;;14.30;99.90;;;;;;5052242;28;20540;-85
2022/10/14 03:58:31;;;;;;;12.23;10.93;;;14.30;99.90;;;;;;5052490;28;20486;-85
2022/10/14 04:00:57;;;;;;;12.30;11.00;;;14.30;99.90;;;;;;5046031;28;20557;-83
2022/10/14 04:03:24;;;;;;;11.80;10.60;;;14.30;99.90;;;;;;5036362;28;20594;-85
2022/10/14 04:05:51;;;;;;;11.27;9.17;;;14.30;99.90;;;;;;5045660;28;20511;-85
2022/10/14 04:08:18;;;;;;;11.37;10.20;;;14.30;99.90;;;;;;5027411;28;20452;-84
2022/10/14 04:10:45;;;;;;;11.03;9.93;;;14.30;99.90;;;;;;5030599;28;20453;-84
2022/10/14 04:13:13;;;;;;;12.97;11.57;;;14.30;99.90;;;;;;5053689;28;20527;-84
2022/10/14 04:15:40;;;;;;;12.27;11.03;;;14.30;99.90;;;;;;5051320;28;20561;-84
2022/10/14 04:18:07;;;;;;;14.67;11.37;;;14.30;99.90;;;;;;5046858;28;20548;-84
2022/10/14 04:20:34;;;;;;;12.93;11.33;;;14.30;99.90;;;;;;5031316;28;20560;-85
2022/10/14 04:23:00;;;;;;;11.37;10.00;;;14.30;99.90;;;;;;5027948;28;20540;-85
2022/10/14 04:25:27;;;;;;;12.60;10.90;;;14.30;99.90;;;;;;5041611;28;20487;-85
2022/10/14 04:27:54;;;;;;;13.00;11.10;;;14.30;99.90;;;;;;5043896;28;20536;-84
2022/10/14 04:30:22;;;;;;;11.27;10.10;;;14.30;99.90;;;;;;5047452;28;20451;-84
2022/10/14 04:32:49;;;;;;;12.67;10.50;;;14.30;99.90;;;;;;5064935;28;20543;-86
2022/10/14 04:35:16;;;;;;;10.50;9.07;;;14.30;99.90;;;;;;5051282;28;20491;-85
2022/10/14 04:37:43;;;;;;;10.27;9.20;;;14.30;99.90;;;;;;5042851;28;20510;-85
2022/10/14 04:40:10;;;;;;;11.80;10.43;;;14.30;99.90;;;;;;5042952;28;20507;-85
2022/10/14 04:42:37;;;;;;;9.17;8.27;;;14.30;99.90;;;;;;5042370;28;20458;-85
2022/10/14 04:45:04;;;;;;;12.93;10.17;;;14.30;99.90;;;;;;5028163;28;20478;-85
2022/10/14 04:47:32;;;;;;;10.87;9.27;;;14.30;99.90;;;;;;5022590;28;20514;-85
2022/10/14 04:49:59;;;;;;;8.90;8.00;;;14.30;99.90;;;;;;5022566;28;20468;-85
2022/10/14 04:52:26;;;;;;;14.50;9.40;;;14.30;99.90;;;;;;5022054;28;20521;-85
2022/10/14 04:54:53;;;;;;;9.40;8.10;;;14.30;99.90;;;;;;5022295;28;20487;-85
2022/10/14 04:57:19;;;;;;;10.77;9.67;;;14.30;99.90;;;;;;5025040;28;20485;-85
2022/10/14 04:59:46;;;;;;;9.73;8.43;;;14.30;99.90;;;;;;5042360;28;20530;-85
2022/10/14 05:02:13;;;;;;;9.63;8.27;;;14.30;99.90;;;;;;5033178;28;20461;-85
2022/10/14 05:04:41;;;;;;;8.47;7.57;;;14.30;99.90;;;;;;5021998;28;20484;-85
2022/10/14 05:07:08;;;;;;;13.40;8.50;;;14.30;99.90;;;;;;5021609;28;20901;-85
2022/10/14 05:09:35;;;;;;;9.07;8.17;;;14.30;99.90;;;;;;5030193;28;20449;-84
2022/10/14 05:12:02;;;;;;;9.10;8.20;;;14.30;99.90;;;;;;5040312;28;20456;-84
2022/10/14 05:14:28;;;;;;;10.07;8.70;;;14.30;99.90;;;;;;5029514;28;20471;-83
2022/10/14 05:16:55;;;;;;;10.37;8.63;;;14.30;99.90;;;;;;5019369;28;20557;-84
2022/10/14 05:19:23;;;;;;;10.40;9.27;;;14.30;99.90;;;;;;5028215;28;20445;-84
2022/10/14 05:21:51;;;;;;;9.60;8.60;;;14.30;99.90;;;;;;5038654;28;20459;-84
2022/10/14 05:24:18;;;;;;;9.03;8.13;;;14.30;99.90;;;;;;5020295;28;20585;-83
2022/10/14 05:26:45;;;;;;;8.73;7.83;;;14.30;99.90;;;;;;5019547;28;20452;-84
2022/10/14 05:29:12;;;;;;;9.40;8.40;;;14.30;99.90;;;;;;5037584;28;20489;-84
2022/10/14 05:31:39;;;;;;;8.97;8.07;;;14.30;99.90;;;;;;5039926;28;20456;-84
2022/10/14 05:34:06;;;;;;;10.20;8.43;;;14.30;99.90;;;;;;5020493;28;20837;-83
2022/10/14 05:36:32;;;;;;;9.37;8.37;;;14.30;99.90;;;;;;5035643;28;20468;-84
2022/10/14 05:39:01;;;;;;;10.50;8.90;;;14.30;99.90;;;;;;5038744;28;20479;-84
2022/10/14 05:41:28;;;;;;;8.93;7.60;;;14.30;99.90;;;;;;5039622;28;20964;-84
2022/10/14 05:43:54;;;;;;;9.10;8.13;;;14.30;99.90;;;;;;5023349;28;21724;-83
2022/10/14 05:46:21;;;;;;;8.17;7.37;;;14.30;99.90;;;;;;5032066;28;20455;-84
2022/10/14 05:48:48;;;;;;;8.60;7.80;;;14.30;99.90;;;;;;5032337;28;20516;-84
2022/10/14 05:51:15;;;;;;;7.43;6.73;;;14.30;99.90;;;;;;5036158;28;20465;-84
2022/10/14 05:53:42;;;;;;;8.23;7.43;;;14.30;99.90;;;;;;5035011;28;20978;-85
2022/10/14 05:56:10;;;;;;;10.73;9.53;;;14.30;99.90;;;;;;5029419;28;20459;-85
2022/10/14 05:58:40;;;;;;;9.57;8.43;;;14.30;99.90;;;;;;5023186;28;20600;-85
2022/10/14 06:01:19;;;;;;;8.40;7.60;;;14.30;99.90;;;;;;5027163;28;21078;-86
2022/10/14 06:03:50;;;;;;;9.50;7.90;;;14.30;99.90;;;;;;5031909;28;20506;-85
2022/10/14 06:06:17;;;;;;;8.20;7.40;;;14.30;99.90;;;;;;5027523;28;20525;-85
2022/10/14 06:08:44;;;;;;;10.53;8.33;;;14.30;99.90;;;;;;5023212;28;20452;-86
2022/10/14 06:11:13;;;;;;;9.60;7.90;;;14.30;99.90;;;;;;5020764;28;20459;-84
2022/10/14 06:13:39;;;;;;;7.80;6.57;;;14.40;99.90;;;;;;5021388;28;20829;-85
2022/10/14 06:16:13;;;;;;;8.10;7.30;;;14.40;99.90;;;;;;5022067;28;20470;-86
2022/10/14 06:18:40;;;;;;;9.00;7.63;;;14.40;99.90;;;;;;5026797;28;20521;-85
2022/10/14 06:21:07;;;;;;;9.40;6.70;;;14.40;99.90;;;;;;5022303;28;20972;-85
2022/10/14 06:23:34;;;;;;;7.43;6.63;;;14.40;99.90;;;;;;5024766;28;20497;-86
2022/10/14 06:26:04;;;;;;;7.60;6.90;;;14.50;99.90;;;;;;5026204;28;20453;-85
2022/10/14 06:28:33;;;;;;;7.03;6.33;;;14.40;99.90;;;;;;5026559;28;20545;-85
2022/10/14 06:30:59;;;;;;;8.30;6.83;;;14.50;99.90;;;;;;5021475;28;20469;-85
2022/10/14 06:33:28;;;;;;;9.07;7.63;;;14.50;99.90;;;;;;5024697;28;21000;-84
2022/10/14 06:35:55;;;;;;;7.67;6.90;;;14.50;99.90;;;;;;5022361;28;20459;-85
2022/10/14 06:38:22;;;;;;;9.50;6.97;;;14.60;99.90;;;;;;5022249;28;20948;-85
2022/10/14 06:40:50;;;;;;;7.37;6.33;;;14.60;99.90;;;;;;5024041;28;20522;-85
2022/10/14 06:43:17;;;;;;;7.20;6.50;;;14.60;99.90;;;;;;5024791;28;20535;-85
2022/10/14 06:45:45;;;;;;;6.33;5.73;;;14.60;99.90;;;;;;5024794;28;20469;-86
2022/10/14 06:48:12;;;;;;;6.23;5.30;;;14.70;99.90;;;;;;5024287;28;20440;-85
2022/10/14 06:50:39;;;;;;;6.20;5.60;;;14.70;99.90;;;;;;5021345;28;20453;-86
2022/10/14 06:53:09;;;;;;;6.53;5.83;;;14.70;99.90;;;;;;5018825;28;20459;-85
2022/10/14 06:55:36;;;;;;;6.37;5.77;;;14.70;99.90;;;;;;5021194;28;20486;-85
2022/10/14 06:58:03;;;;;;;7.60;6.10;;;14.70;99.90;;;;;;5018975;28;20490;-85
2022/10/14 07:00:29;;;;;;;5.43;4.90;;;14.80;99.90;;;;;;5028604;28;20460;-87
2022/10/14 07:02:59;;;;;;;6.17;5.57;;;14.80;99.90;;;;;;5024364;28;20454;-87
2022/10/14 07:05:29;;;;;;;6.70;6.10;;;14.90;99.90;;;;;;5032596;28;20475;-87
2022/10/14 07:07:58;;;;;;;7.23;5.10;;;14.90;99.90;;;;;;5022573;28;20449;-87
2022/10/14 07:10:24;;;;;;;8.23;6.23;;;14.90;99.90;;;;;;5028573;28;20478;-87
2022/10/14 07:12:53;;;;;;;7.20;5.80;;;14.90;99.90;;;;;;5011845;28;20439;-87
2022/10/14 07:15:20;;;;;;;5.13;4.57;;;14.90;99.90;;;;;;5022724;28;20476;-87
2022/10/14 07:17:47;;;;;;;5.70;5.03;;;15.00;99.90;;;;;;5020154;28;20938;-87
2022/10/14 07:20:15;;;;;;;6.37;4.83;;;15.00;99.90;;;;;;5026943;28;20467;-88
2022/10/14 07:22:42;;;;;;;5.30;4.80;;;15.10;99.90;;;;;;5027059;28;21018;-87
2022/10/14 07:25:10;;;;;;;6.03;5.43;;;15.10;99.90;;;;;;5015840;28;20474;-87
2022/10/14 07:27:37;;;;;;;5.93;5.20;;;15.10;99.90;;;;;;5015479;28;20454;-88
2022/10/14 07:30:05;;;;;;;4.77;4.30;;;15.20;99.90;;;;;;5025423;28;20464;-87
2022/10/14 07:32:35;;;;;;;4.73;4.23;;;15.20;99.90;;;;;;5020307;28;20455;-88
2022/10/14 07:35:02;;;;;;;4.60;3.60;;;15.20;99.90;;;;;;5015552;28;20565;-89
2022/10/14 07:37:30;;;;;;;5.43;4.93;;;15.20;99.90;;;;;;5015291;28;20552;-88
2022/10/14 07:39:57;;;;;;;6.27;4.53;;;15.20;99.90;;;;;;5030171;28;21121;-88
2022/10/14 07:42:24;;;;;;;4.77;4.27;;;15.30;99.90;;;;;;5034220;28;20448;-88
2022/10/14 07:45:04;;;;;;;6.10;4.70;;;15.30;99.90;;;;;;5031619;28;20975;-86
2022/10/14 07:47:32;;;;;;;4.37;3.80;;;15.30;99.90;;;;;;5031855;28;20453;-88
2022/10/14 07:49:59;;;;;;;4.57;4.17;;;15.30;99.90;;;;;;5036677;28;20450;-86
2022/10/14 07:52:26;;;;;;;3.97;3.60;;;15.40;99.90;;;;;;5031433;28;20452;-87
2022/10/14 07:54:54;;;;;;;5.17;4.67;;;15.40;99.90;;;;;;5029691;28;20478;-87
2022/10/14 08:00:03;;;;;;;5.17;3.80;;;15.40;99.90;;;;;;5020011;28;20441;-88
2022/10/14 08:02:30;;;;;;;6.33;4.20;;;15.50;99.90;;;;;;5027651;28;20451;-87
2022/10/14 08:04:57;;;;;;;4.40;4.00;;;15.50;99.90;;;;;;5035405;28;20479;-87
2022/10/14 08:07:25;;;;;;;4.47;3.53;;;15.50;99.90;;;;;;5025196;28;20446;-86
2022/10/14 08:09:54;;;;;;;4.03;3.53;;;15.40;99.90;;;;;;5014671;28;20454;-88
2022/10/14 08:12:20;;;;;;;4.33;3.93;;;15.50;99.90;;;;;;5014699;28;20461;-88
2022/10/14 08:14:47;;;;;;;5.03;4.53;;;15.40;99.90;;;;;;5015307;28;20464;-88
2022/10/14 08:17:16;;;;;;;7.00;3.67;;;15.30;99.90;;;;;;5020129;28;20536;-87
2022/10/14 08:19:43;;;;;;;4.10;3.60;;;15.40;99.90;;;;;;5034442;28;20520;-88
2022/10/14 08:22:10;;;;;;;3.53;3.07;;;15.50;99.90;;;;;;5028530;28;20458;-89
2022/10/14 08:24:37;;;;;;;4.30;3.37;;;15.60;99.90;;;;;;5014968;28;20481;-88
2022/10/14 08:27:06;;;;;;;3.83;3.37;;;15.50;99.90;;;;;;5015144;28;20461;-87
2022/10/14 08:29:33;;;;;;;3.80;3.37;;;15.50;99.90;;;;;;5029954;28;20441;-87
2022/10/14 08:32:00;;;;;;;5.13;3.50;;;15.50;99.90;;;;;;5032869;28;20959;-88
2022/10/14 08:34:27;;;;;;;3.43;2.80;;;15.60;99.90;;;;;;5046688;28;20586;-88
2022/10/14 08:36:54;;;;;;;4.20;3.80;;;15.70;99.90;;;;;;5029330;28;20468;-89
2022/10/14 08:39:21;;;;;;;4.83;3.70;;;15.70;99.90;;;;;;5034252;28;20864;-88
2022/10/14 08:42:05;;;;;;;3.23;2.93;;;15.70;99.90;;;;;;5014071;28;20454;-88
2022/10/14 08:44:41;;;;;;;3.57;2.73;;;15.70;99.90;;;;;;5015077;28;20483;-89
2022/10/14 08:47:12;;;;;;;3.17;2.50;;;15.60;99.90;;;;;;5014501;28;20446;-89
2022/10/14 08:49:52;;;;;;;4.00;2.90;;;15.70;99.90;;;;;;5014273;28;20463;-88
2022/10/14 08:52:26;;;;;;;2.60;2.17;;;15.80;99.90;;;;;;5014532;28;20460;-89
2022/10/14 08:54:58;;;;;;;3.07;2.77;;;15.80;99.90;;;;;;5016853;28;20856;-89
2022/10/14 08:57:27;;;;;;;3.33;2.50;;;15.70;99.90;;;;;;5033791;28;20537;-90
2022/10/14 08:59:55;;;;;;;2.80;2.10;;;15.70;99.90;;;;;;5026270;28;20566;-88
2022/10/14 09:02:32;;;;;;;5.80;2.03;;;15.80;99.90;;;;;;5027201;28;20461;-88
2022/10/14 09:05:01;;;;;;;2.37;2.00;;;15.80;99.90;;;;;;5033074;28;20482;-88
2022/10/14 09:07:29;;;;;;;4.60;1.83;;;15.90;99.90;;;;;;5034073;28;20453;-89
2022/10/14 09:10:02;;;;;;;3.93;2.53;;;16.00;99.90;;;;;;5026403;28;20527;-90
2022/10/14 09:12:31;;;;;;;3.23;1.90;;;16.00;99.90;;;;;;5025915;28;20971;-89
2022/10/14 09:15:07;;;;;;;3.30;2.13;;;16.00;99.90;;;;;;5031209;28;20598;-89
2022/10/14 09:17:40;;;;;;;3.20;1.73;;;16.10;99.90;;;;;;5028235;28;20458;-89
2022/10/14 09:20:16;;;;;;;3.07;1.90;;;16.10;99.90;;;;;;5032838;28;20488;-90
2022/10/14 09:22:45;;;;;;;2.87;1.33;;;16.20;99.90;;;;;;5020158;28;20457;-88
2022/10/14 09:25:14;;;;;;;2.00;1.70;;;16.20;99.90;;;;;;5027037;28;20494;-88
2022/10/14 09:27:43;;;;;;;3.33;1.80;;;16.30;99.90;;;;;;5027213;28;21209;-89
2022/10/14 09:30:16;;;;;;;3.23;1.90;;;16.40;99.90;;;;;;5025531;28;20546;-89
2022/10/14 09:32:47;;;;;;;1.90;1.60;;;16.40;99.90;;;;;;5027505;28;20474;-88
2022/10/14 09:35:19;;;;;;;2.53;1.43;;;16.40;99.90;;;;;;5022571;28;20492;-89
2022/10/14 09:37:46;;;;;;;3.50;1.40;;;16.50;99.90;;;;;;5028585;28;20460;-88
2022/10/14 09:40:20;;;;;;;2.40;1.47;;;16.40;99.90;;;;;;5032685;28;20480;-89
2022/10/14 09:42:51;;;;;;;2.93;1.63;;;16.40;99.90;;;;;;5033030;28;20914;-88
2022/10/14 09:45:25;;;;;;;2.90;1.63;;;16.30;99.90;;;;;;5023707;28;20477;-89
2022/10/14 09:47:56;;;;;;;5.17;2.10;;;16.40;99.90;;;;;;5032414;28;20546;-89
2022/10/14 09:50:31;;;;;;;2.03;1.50;;;16.50;99.90;;;;;;5023610;28;20449;-89
2022/10/14 09:53:01;;;;;;;1.90;1.17;;;16.40;99.90;;;;;;5021311;28;20445;-90
2022/10/14 09:55:29;;;;;;;2.80;1.40;;;16.50;99.90;;;;;;5019802;28;20490;-89
2022/10/14 09:58:05;;;;;;;2.27;1.53;;;16.60;99.90;;;;;;5023727;28;20445;-89
2022/10/14 10:00:36;;;;;;;3.17;1.20;;;16.50;99.90;;;;;;5023441;28;20452;-89
2022/10/14 10:03:03;;;;;;;3.57;1.60;;;16.60;99.90;;;;;;5030605;28;20452;-88
2022/10/14 10:05:32;;;;;;;2.53;1.50;;;16.60;99.90;;;;;;5020555;28;20568;-88
2022/10/14 10:08:06;;;;;;;2.20;1.50;;;16.70;99.90;;;;;;5020737;28;20500;-89
2022/10/14 10:10:34;;;;;;;2.40;1.70;;;16.90;99.90;;;;;;5016377;28;20457;-88
2022/10/14 10:13:01;;;;;;;2.17;1.40;;;16.90;99.90;;;;;;5024802;28;20470;-89
2022/10/14 10:15:35;;;;;;;4.00;1.57;;;17.00;99.90;;;;;;5032311;28;20559;-89
2022/10/14 10:18:18;;;;;;;2.43;1.13;;;17.10;99.90;;;;;;5029944;28;20521;-89
2022/10/14 10:21:05;;;;;;;2.77;1.50;;;17.00;99.90;;;;;;5027835;28;20454;-90
2022/10/14 10:23:34;;;;;;;2.20;1.30;;;17.10;99.90;;;;;;5025373;28;20503;-89
2022/10/14 10:26:15;;;;;;;2.07;1.20;;;17.00;99.90;;;;;;5032148;28;20468;-90
2022/10/14 10:28:45;;;;;;;3.03;1.23;;;16.90;99.90;;;;;;5032832;28;20452;-89
2022/10/14 10:31:24;;;;;;;2.37;1.50;;;17.00;99.90;;;;;;5030055;28;20850;-89
2022/10/14 10:34:01;;;;;;;2.60;1.80;;;16.90;99.90;;;;;;5032047;28;21000;-89
2022/10/14 10:36:33;;;;;;;2.90;1.90;;;16.90;99.90;;;;;;5014376;28;20465;-89
2022/10/14 10:39:05;;;;;;;3.27;2.60;;;16.90;99.90;;;;;;5026394;28;20490;-89
2022/10/14 10:41:52;;;;;;;2.30;1.40;;;16.90;99.90;;;;;;5032395;28;20449;-89
2022/10/14 10:44:50;;;;;;;3.47;1.60;;;16.90;99.90;;;;;;5016159;28;20476;-89
2022/10/14 10:47:30;;;;;;;6.63;5.10;;;17.00;99.90;;;;;;5006113;28;20492;-89
2022/10/14 10:50:32;;;;;;;8.33;5.17;;;17.00;99.90;;;;;;5012285;28;20523;-85
2022/10/14 10:53:13;;;;;;;2.63;1.63;;;17.00;99.90;;;;;;4955481;28;20449;-87
2022/10/14 10:55:53;;;;;;;2.70;1.47;;;16.90;99.90;;;;;;4992325;28;1066999;-87
2022/10/14 10:58:36;;;;;;;2.40;1.50;;;17.00;99.90;;;;;;5021453;28;20453;-88
2022/10/14 11:01:24;;;;;;;1.80;1.20;;;17.00;99.90;;;;;;5035295;28;20531;-88
2022/10/14 11:04:07;;;;;;;2.60;1.80;;;17.10;99.90;;;;;;5025087;28;20473;-89
2022/10/14 11:12:27;;;;;;;2.20;1.40;;;17.10;99.90;;;;;;5029795;28;20466;-89
2022/10/14 11:15:18;;;;;;;2.40;1.77;;;17.10;99.90;;;;;;5031388;28;20516;-88
2022/10/14 11:17:51;;;;;;;3.20;1.73;;;17.00;99.90;;;;;;5031215;28;20454;-89
2022/10/14 11:20:33;;;;;;;2.10;1.50;;;16.90;99.90;;;;;;5040513;28;20572;-89
2022/10/14 11:26:57;;;;;;;3.47;1.83;;;17.10;99.90;;;;;;4964002;28;20447;-89
2022/10/14 11:29:41;;;;;;;4.87;2.30;;;17.10;99.90;;;;;;4958905;29;20468;-89
2022/10/14 11:32:15;;;;;;;3.83;2.40;;;17.10;99.90;;;;;;5004005;28;20487;-89
2022/10/14 11:34:54;;;;;;;2.60;2.00;;;17.00;99.90;;;;;;5017135;28;20512;-89
2022/10/14 11:37:29;;;;;;;2.73;2.23;;;17.00;99.90;;;;;;5027431;28;20448;-89
2022/10/14 11:40:01;;;;;;;3.87;1.97;;;16.90;99.90;;;;;;5026623;28;20481;-89
2022/10/14 11:42:41;;;;;;;4.00;2.27;;;17.10;99.90;;;;;;5020423;28;21032;-88
2022/10/14 11:45:27;;;;;;;3.77;2.20;;;17.10;99.90;;;;;;5017744;28;20578;-89
2022/10/14 11:48:01;;;;;;;3.30;2.50;;;16.90;99.90;;;;;;5019686;28;20447;-88
2022/10/14 11:50:33;;;;;;;3.37;2.53;;;17.10;99.90;;;;;;5032515;28;20493;-90
2022/10/14 11:53:06;;;;;;;4.80;2.90;;;17.10;99.90;;;;;;5022043;28;20900;-90
2022/10/14 11:55:42;;;;;;;4.23;3.47;;;17.00;99.90;;;;;;5018670;28;20494;-90
2022/10/14 11:58:15;;;;;;;3.83;2.93;;;17.00;99.90;;;;;;5017145;28;20540;-90
2022/10/14 12:01:02;;;;;;;4.30;2.67;;;16.90;99.90;;;;;;5024576;28;20504;-89
2022/10/14 12:03:45;;;;;;;4.67;2.87;;;17.00;99.90;;;;;;5037489;28;20480;-88
2022/10/14 12:06:17;;;;;;;9.43;3.60;;;17.00;99.90;;;;;;5033580;28;20913;-90
2022/10/14 12:08:50;;;;;;;5.30;3.43;;;17.00;99.90;;;;;;5039543;28;20536;-89
2022/10/14 12:11:28;;;;;;;4.97;2.87;;;16.90;99.90;;;;;;5038850;28;20448;-89
2022/10/14 12:14:04;;;;;;;3.63;3.10;;;16.90;99.90;;;;;;5043655;28;20495;-89
2022/10/14 12:16:33;;;;;;;7.50;3.60;;;16.90;99.90;;;;;;5037814;28;20447;-87
2022/10/14 12:19:03;;;;;;;4.60;2.97;;;17.00;99.90;;;;;;5030682;28;20463;-88
2022/10/14 12:21:35;;;;;;;3.77;2.93;;;17.00;99.90;;;;;;5034501;28;20491;-89
2022/10/14 12:24:13;;;;;;;4.67;3.33;;;17.00;99.90;;;;;;5038509;28;20476;-89
2022/10/14 12:26:51;;;;;;;5.50;3.50;;;17.00;99.90;;;;;;5018840;28;20455;-89
2022/10/14 12:29:21;;;;;;;9.43;4.30;;;16.90;99.90;;;;;;5017859;28;20444;-89
2022/10/14 12:31:50;;;;;;;6.27;3.87;;;16.90;99.90;;;;;;5034946;28;20460;-89
2022/10/14 12:34:29;;;;;;;5.53;4.20;;;17.00;99.90;;;;;;5038646;28;21003;-89
2022/10/14 12:36:56;;;;;;;4.93;3.57;;;16.90;99.90;;;;;;5040583;28;20477;-88
2022/10/14 12:39:33;;;;;;;6.20;4.40;;;17.00;99.90;;;;;;5040198;28;20931;-90
2022/10/14 12:42:10;;;;;;;7.30;4.70;;;16.80;99.90;;;;;;5025022;28;20457;-91
2022/10/14 12:44:46;;;;;;;7.03;5.30;;;16.90;99.90;;;;;;5019916;28;20532;-89
2022/10/14 12:47:29;;;;;;;9.53;5.50;;;16.70;99.90;;;;;;5029916;28;20436;-89
2022/10/14 12:50:01;;;;;;;9.07;5.83;;;16.70;99.90;;;;;;5029276;28;20804;-86
2022/10/14 12:52:40;;;;;;;7.50;4.93;;;16.80;99.90;;;;;;5015394;28;20560;-86
2022/10/14 12:55:16;;;;;;;10.00;6.50;;;16.70;99.90;;;;;;5014708;28;20570;-86
2022/10/14 12:57:52;;;;;;;7.93;6.10;;;16.70;99.90;;;;;;5014655;28;20467;-86
2022/10/14 13:00:30;;;;;;;6.07;5.00;;;16.70;99.90;;;;;;5026758;28;20489;-87
2022/10/14 13:03:07;;;;;;;7.63;5.97;;;16.70;99.90;;;;;;5034683;28;20439;-87
2022/10/14 13:05:37;;;;;;;10.20;7.33;;;16.70;99.90;;;;;;5019998;28;20465;-87
2022/10/14 13:08:14;;;;;;;8.00;5.70;;;16.60;99.90;;;;;;5015521;28;20484;-87
2022/10/14 13:10:47;;;;;;;7.13;6.40;;;16.40;99.90;;;;;;5016700;28;20485;-86